createdAt,value
2022-07-31T01:29:08.255Z,28.51
2022-07-31T01:41:40.658Z,28.28
2022-07-31T01:46:41.493Z,27.81
2022-07-31T01:51:43.552Z,28.39
2022-07-31T01:56:51.501Z,28.14
2022-07-31T02:01:50.781Z,27.83
2022-07-31T02:06:50.040Z,28.36
2022-07-31T02:11:54.800Z,28.09
2022-07-31T02:16:59.322Z,28.23
2022-07-31T02:22:17.239Z,27.81
2022-07-31T02:27:53.943Z,27.87
2022-07-31T02:32:34.749Z,27.56
2022-07-31T02:37:34.185Z,27.26
2022-07-31T02:42:32.662Z,27.36
2022-07-31T02:47:32.679Z,27.29
2022-07-31T02:52:34.596Z,27.22
2022-07-31T02:57:32.682Z,27.42
2022-07-31T03:02:37.911Z,27.00
2022-07-31T03:07:47.099Z,27.48
2022-07-31T03:12:49.477Z,27.09
2022-07-31T03:18:08.452Z,27.38
2022-07-31T03:23:38.674Z,27.55
2022-07-31T03:34:09.067Z,27.64
2022-07-31T03:44:46.096Z,27.82
2022-07-31T03:49:43.915Z,27.92
2022-07-31T03:54:42.390Z,27.98
2022-07-31T03:59:50.219Z,27.68
2022-07-31T04:04:47.629Z,28.15
2022-07-31T04:09:44.986Z,28.00
2022-07-31T04:14:43.264Z,27.93
2022-07-31T04:19:41.020Z,27.71
2022-07-31T04:24:40.867Z,27.80
2022-07-31T04:29:38.040Z,27.54
2022-07-31T04:34:35.474Z,27.24
2022-07-31T04:39:33.907Z,27.29
2022-07-31T04:44:34.284Z,27.09
2022-07-31T04:49:32.174Z,27.22
2022-07-31T04:54:29.777Z,27.15
2022-07-31T04:59:59.379Z,27.10
2022-07-31T05:04:46.390Z,26.76
2022-07-31T05:09:53.802Z,26.61
2022-07-31T05:14:55.028Z,26.99
2022-07-31T05:19:52.298Z,26.80
2022-07-31T05:25:14.416Z,26.40
2022-07-31T05:30:13.712Z,26.49
2022-07-31T05:35:10.941Z,26.64
2022-07-31T05:40:11.532Z,26.80
2022-07-31T05:45:30.338Z,27.02
2022-07-31T05:50:27.600Z,26.67
2022-07-31T05:55:24.803Z,27.09
2022-07-31T06:00:50.728Z,27.15
2022-07-31T06:05:47.913Z,27.33
2022-07-31T06:10:45.043Z,27.45
2022-07-31T06:15:49.136Z,27.69
2022-07-31T06:20:47.928Z,27.33
2022-07-31T06:25:45.879Z,27.78
2022-07-31T06:31:26.284Z,28.53
2022-07-31T06:36:31.552Z,28.80
2022-07-31T06:41:50.435Z,29.89
2022-07-31T06:47:13.947Z,30.88
2022-07-31T06:52:41.197Z,31.90
2022-07-31T06:57:42.330Z,32.57
2022-07-31T07:02:44.842Z,33.18
2022-07-31T07:07:43.013Z,34.85
2022-07-31T07:12:40.063Z,37.56
2022-07-31T07:17:38.919Z,39.70
2022-07-31T07:22:43.658Z,40.07
2022-07-31T07:27:43.899Z,40.12
2022-07-31T07:32:40.960Z,39.71
2022-07-31T07:37:39.877Z,39.28
2022-07-31T07:42:37.930Z,38.93
2022-07-31T07:47:53.682Z,38.29
2022-07-31T07:52:53.779Z,38.20
2022-07-31T07:58:12.154Z,38.60
2022-07-31T08:03:48.262Z,38.84
2022-07-31T08:08:49.010Z,39.90
2022-07-31T08:14:09.980Z,41.02
2022-07-31T08:19:27.328Z,42.27
2022-07-31T08:24:24.684Z,42.90
2022-07-31T08:29:27.345Z,43.18
2022-07-31T08:34:44.945Z,42.48
2022-07-31T08:39:42.832Z,42.12
2022-07-31T08:44:45.153Z,42.75
2022-07-31T08:49:48.189Z,43.40
2022-07-31T08:54:49.705Z,43.62
2022-07-31T08:59:51.847Z,43.98
2022-07-31T09:04:52.606Z,44.04
2022-07-31T09:09:52.521Z,44.91
2022-07-31T09:15:02.647Z,45.08
2022-07-31T09:19:59.764Z,45.00
2022-07-31T09:25:11.840Z,44.86
2022-07-31T09:30:11.732Z,45.00
2022-07-31T09:35:39.345Z,43.80
2022-07-31T09:40:57.136Z,43.13
2022-07-31T09:46:23.131Z,42.24
2022-07-31T09:51:23.127Z,42.31
2022-07-31T09:56:30.544Z,43.07
2022-07-31T10:01:30.900Z,43.23
2022-07-31T10:06:32.161Z,43.89
2022-07-31T10:11:44.160Z,44.80
2022-07-31T10:16:49.765Z,45.68
2022-07-31T10:22:12.665Z,45.64
2022-07-31T10:27:12.974Z,45.55
2022-07-31T10:32:15.932Z,45.74
2022-07-31T10:37:38.488Z,45.32
2022-07-31T10:43:20.122Z,44.44
2022-07-31T10:48:53.852Z,44.17
2022-07-31T10:54:10.977Z,44.15
2022-07-31T10:59:28.982Z,43.55
2022-07-31T11:05:08.717Z,43.10
2022-07-31T11:10:25.833Z,42.30
2022-07-31T11:16:03.536Z,41.62
2022-07-31T11:21:38.981Z,41.22
2022-07-31T11:26:41.443Z,40.33
2022-07-31T11:31:39.174Z,39.90
2022-07-31T11:36:37.535Z,39.62
2022-07-31T11:41:38.213Z,39.32
2022-07-31T11:46:41.143Z,39.00
2022-07-31T11:51:38.919Z,38.71
2022-07-31T11:56:38.892Z,38.39
2022-07-31T12:01:40.831Z,38.00
2022-07-31T12:06:39.411Z,37.70
2022-07-31T12:11:39.933Z,37.31
2022-07-31T12:16:40.733Z,36.99
2022-07-31T12:21:39.977Z,37.06
2022-07-31T12:26:37.253Z,37.44
2022-07-31T12:31:44.560Z,37.53
2022-07-31T12:36:42.202Z,37.28
2022-07-31T12:41:42.927Z,36.80
2022-07-31T12:46:44.701Z,36.77
2022-07-31T12:51:47.005Z,36.54
2022-07-31T12:56:48.194Z,36.27
2022-07-31T13:01:45.435Z,35.78
2022-07-31T13:06:50.959Z,35.62
2022-07-31T13:11:57.616Z,35.33
2022-07-31T13:16:55.615Z,35.23
2022-07-31T13:21:56.658Z,35.45
2022-07-31T13:26:54.125Z,35.15
2022-07-31T13:31:51.181Z,35.22
2022-07-31T13:36:48.614Z,35.20
2022-07-31T13:41:48.099Z,34.96
2022-07-31T13:46:46.121Z,34.79
2022-07-31T13:51:45.435Z,35.09
2022-07-31T13:57:07.531Z,35.14
2022-07-31T14:02:05.710Z,34.84
2022-07-31T14:07:09.334Z,35.10
2022-07-31T14:12:09.197Z,35.10
2022-07-31T14:17:06.791Z,34.75
2022-07-31T14:22:03.943Z,34.65
2022-07-31T14:27:09.027Z,35.11
2022-07-31T14:32:09.925Z,34.93
2022-07-31T14:37:23.581Z,34.73
2022-07-31T14:42:22.352Z,34.13
2022-07-31T14:47:23.046Z,34.43
2022-07-31T14:52:20.072Z,34.22
2022-07-31T14:57:20.232Z,33.74
2022-07-31T15:02:22.772Z,34.24
2022-07-31T15:07:39.895Z,34.30
2022-07-31T15:12:39.962Z,34.24
2022-07-31T15:17:37.773Z,34.17
2022-07-31T15:22:38.647Z,34.25
2022-07-31T15:27:35.714Z,34.16
2022-07-31T15:32:35.807Z,34.07
2022-07-31T15:37:35.362Z,34.04
2022-07-31T15:42:33.024Z,33.50
2022-07-31T15:47:30.571Z,33.70
2022-07-31T15:52:27.731Z,33.93
2022-07-31T15:57:30.197Z,33.77
2022-07-31T16:02:29.965Z,33.81
2022-07-31T16:08:30.535Z,33.11
2022-07-31T16:12:48.049Z,33.43
2022-07-31T16:17:47.006Z,33.70
2022-07-31T16:22:49.130Z,32.98
2022-07-31T16:27:49.677Z,33.27
2022-07-31T16:32:46.779Z,33.52
2022-07-31T16:37:52.139Z,33.42
2022-07-31T16:42:53.636Z,32.88
2022-07-31T16:47:52.049Z,32.93
2022-07-31T16:52:54.638Z,32.62
2022-07-31T16:58:15.053Z,32.82
2022-07-31T17:03:58.747Z,32.44
2022-07-31T17:08:40.412Z,31.66
2022-07-31T17:13:40.827Z,30.65
2022-07-31T17:18:52.639Z,29.76
2022-07-31T17:23:54.827Z,28.72
2022-07-31T17:28:53.828Z,28.05
2022-07-31T17:34:00.545Z,27.84
2022-07-31T17:39:00.731Z,27.30
2022-07-31T17:43:58.616Z,26.90
2022-07-31T17:49:19.432Z,27.09
2022-07-31T17:54:20.966Z,26.88
2022-07-31T17:59:22.468Z,26.85
2022-07-31T18:04:20.619Z,26.30
2022-07-31T18:09:20.123Z,26.43
2022-07-31T18:14:36.018Z,26.53
2022-07-31T18:19:36.066Z,26.42
2022-07-31T18:24:37.431Z,26.46
2022-07-31T18:29:35.934Z,26.19
2022-07-31T18:34:33.766Z,26.09
2022-07-31T18:39:31.844Z,25.77
2022-07-31T18:44:31.023Z,26.30
2022-07-31T18:50:59.637Z,25.84
2022-07-31T18:55:20.755Z,26.63
2022-07-31T19:05:55.544Z,26.15
2022-07-31T19:10:55.911Z,26.08
2022-07-31T19:16:03.286Z,26.52
2022-07-31T19:21:17.939Z,26.66
2022-07-31T19:26:19.219Z,26.90
2022-07-31T19:31:18.095Z,27.22
2022-07-31T19:36:20.214Z,26.99
2022-07-31T19:41:18.270Z,27.29
2022-07-31T19:46:15.776Z,26.87
2022-07-31T19:51:15.095Z,27.16
2022-07-31T19:56:19.677Z,27.07
2022-07-31T20:01:28.804Z,27.22
2022-07-31T20:06:28.156Z,27.37
2022-07-31T20:11:27.691Z,27.10
2022-07-31T20:16:25.382Z,26.80
2022-07-31T20:21:37.359Z,27.09
2022-07-31T20:27:06.093Z,27.36
2022-07-31T20:32:32.151Z,27.18
2022-07-31T20:38:11.727Z,27.08
2022-07-31T20:43:36.023Z,27.24
2022-07-31T20:49:06.263Z,26.81
2022-07-31T20:54:09.780Z,27.09
2022-07-31T20:59:08.612Z,26.87
2022-07-31T21:04:11.721Z,26.62
2022-07-31T21:09:12.119Z,26.46
2022-07-31T21:14:18.325Z,26.64
2022-07-31T21:19:18.623Z,26.97
2022-07-31T21:24:16.297Z,26.93
2022-07-31T21:29:14.743Z,26.62
2022-07-31T21:34:13.038Z,26.42
2022-07-31T21:39:19.153Z,26.86
2022-07-31T21:44:18.764Z,26.65
2022-07-31T21:49:19.701Z,26.55
2022-07-31T21:54:20.928Z,26.74
2022-07-31T21:59:18.887Z,26.46
2022-07-31T22:04:16.058Z,26.49
2022-07-31T22:09:13.749Z,26.44
2022-07-31T22:14:20.528Z,26.38
2022-07-31T22:19:24.877Z,26.13
2022-07-31T22:24:23.258Z,26.62
2022-07-31T22:29:26.249Z,26.43
2022-07-31T22:34:37.326Z,26.55
2022-07-31T22:39:53.666Z,26.32
2022-07-31T22:44:51.406Z,25.95
2022-07-31T22:50:05.872Z,26.43
2022-07-31T22:55:07.500Z,26.08
2022-07-31T23:00:06.918Z,26.19
2022-07-31T23:05:05.536Z,26.31
2022-07-31T23:10:09.437Z,26.28
2022-07-31T23:15:07.264Z,26.30
2022-07-31T23:20:06.484Z,26.16
2022-07-31T23:25:15.195Z,26.03
2022-07-31T23:30:15.813Z,26.06
2022-07-31T23:35:13.619Z,26.04
2022-07-31T23:40:21.168Z,25.90
2022-07-31T23:45:18.302Z,25.37
2022-07-31T23:50:18.580Z,25.79
2022-07-31T23:55:15.688Z,25.67
